sensor_id;sensor_type;location;lat;lon;timestamp;pressure;altitude;pressure_sealevel;temperature;humidity
61109;BME280;46995;55.740;37.402;2022-12-15T19:33:07;99318.78;;;-4.10;88.00
61109;BME280;46995;55.740;37.402;2022-12-15T19:35:32;99302.63;;;-4.15;87.95
61109;BME280;46995;55.740;37.402;2022-12-15T19:38:00;99300.00;;;-4.14;88.34
61109;BME280;46995;55.740;37.402;2022-12-15T19:40:29;99302.44;;;-4.09;87.94
61109;BME280;46995;55.740;37.402;2022-12-15T19:42:56;99311.66;;;-4.02;87.74
61109;BME280;46995;55.740;37.402;2022-12-15T19:45:24;99296.41;;;-4.08;87.96
61109;BME280;46995;55.740;37.402;2022-12-15T19:47:50;99305.47;;;-3.97;88.40
61109;BME280;46995;55.740;37.402;2022-12-15T19:50:18;99288.22;;;-3.95;88.04
61109;BME280;46995;55.740;37.402;2022-12-15T19:52:46;99267.03;;;-4.04;88.17
61109;BME280;46995;55.740;37.402;2022-12-15T19:55:15;99275.28;;;-3.93;88.06
61109;BME280;46995;55.740;37.402;2022-12-15T19:57:42;99276.75;;;-3.86;88.13
61109;BME280;46995;55.740;37.402;2022-12-15T20:00:17;99290.25;;;-3.78;87.88
61109;BME280;46995;55.740;37.402;2022-12-15T20:02:50;99274.66;;;-3.75;87.46
61109;BME280;46995;55.740;37.402;2022-12-15T20:05:17;99279.78;;;-3.73;87.40
61109;BME280;46995;55.740;37.402;2022-12-15T20:07:43;99266.69;;;-3.67;87.73
61109;BME280;46995;55.740;37.402;2022-12-15T20:10:29;99235.78;;;-3.95;87.32
61109;BME280;46995;55.740;37.402;2022-12-15T20:12:55;99220.31;;;-3.95;87.99
61109;BME280;46995;55.740;37.402;2022-12-15T20:15:23;99255.84;;;-3.77;87.65
61109;BME280;46995;55.740;37.402;2022-12-15T20:17:50;99260.09;;;-3.76;87.78
61109;BME280;46995;55.740;37.402;2022-12-15T20:20:24;99260.88;;;-3.74;87.74
61109;BME280;46995;55.740;37.402;2022-12-15T20:22:54;99265.94;;;-3.71;87.04
61109;BME280;46995;55.740;37.402;2022-12-15T20:25:26;99225.16;;;-3.86;86.77
61109;BME280;46995;55.740;37.402;2022-12-15T20:27:54;99247.28;;;-3.79;86.96
61109;BME280;46995;55.740;37.402;2022-12-15T20:30:26;99244.78;;;-3.82;87.14
61109;BME280;46995;55.740;37.402;2022-12-15T20:32:52;99260.78;;;-3.71;86.91
61109;BME280;46995;55.740;37.402;2022-12-15T20:35:20;99262.47;;;-3.70;87.23
61109;BME280;46995;55.740;37.402;2022-12-15T20:37:46;99241.06;;;-3.72;86.93
61109;BME280;46995;55.740;37.402;2022-12-15T20:42:41;99251.16;;;-3.66;86.99
61109;BME280;46995;55.740;37.402;2022-12-15T20:45:06;99227.41;;;-3.75;86.82
61109;BME280;46995;55.740;37.402;2022-12-15T20:47:32;99233.94;;;-3.65;86.88
61109;BME280;46995;55.740;37.402;2022-12-15T20:49:59;99208.13;;;-3.90;86.72
61109;BME280;46995;55.740;37.402;2022-12-15T20:52:26;99235.09;;;-3.74;86.88
61109;BME280;46995;55.740;37.402;2022-12-15T20:54:52;99208.56;;;-3.77;86.97
61109;BME280;46995;55.740;37.402;2022-12-15T20:57:19;99211.88;;;-3.74;87.39
61109;BME280;46995;55.740;37.402;2022-12-15T20:59:46;99196.59;;;-3.80;87.00
61109;BME280;46995;55.740;37.402;2022-12-15T21:02:22;99202.34;;;-3.72;87.07
61109;BME280;46995;55.740;37.402;2022-12-15T21:04:48;99211.59;;;-3.66;87.10
61109;BME280;46995;55.740;37.402;2022-12-15T21:07:15;99213.13;;;-3.61;87.57
61109;BME280;46995;55.740;37.402;2022-12-15T21:09:41;99223.44;;;-3.61;87.87
61109;BME280;46995;55.740;37.402;2022-12-15T21:12:18;99188.53;;;-3.71;87.84
61109;BME280;46995;55.740;37.402;2022-12-15T21:14:49;99219.94;;;-3.58;88.10
61109;BME280;46995;55.740;37.402;2022-12-15T21:17:17;99200.22;;;-3.61;88.02
61109;BME280;46995;55.740;37.402;2022-12-15T21:19:43;99213.09;;;-3.59;88.16
61109;BME280;46995;55.740;37.402;2022-12-15T21:22:24;99169.72;;;-3.73;88.00
61109;BME280;46995;55.740;37.402;2022-12-15T21:24:53;99185.75;;;-3.65;88.21
61109;BME280;46995;55.740;37.402;2022-12-15T21:27:20;99204.13;;;-3.49;88.40
61109;BME280;46995;55.740;37.402;2022-12-15T21:29:46;99197.06;;;-3.44;88.49
61109;BME280;46995;55.740;37.402;2022-12-15T21:32:12;99158.16;;;-3.63;88.06
61109;BME280;46995;55.740;37.402;2022-12-15T21:34:38;99189.16;;;-3.39;88.28
61109;BME280;46995;55.740;37.402;2022-12-15T21:37:05;99175.66;;;-3.46;87.96
61109;BME280;46995;55.740;37.402;2022-12-15T21:39:37;99190.84;;;-3.38;87.75
61109;BME280;46995;55.740;37.402;2022-12-15T21:42:13;99189.84;;;-3.34;87.59
61109;BME280;46995;55.740;37.402;2022-12-15T21:44:40;99151.84;;;-3.54;88.00
61109;BME280;46995;55.740;37.402;2022-12-15T21:47:21;99178.63;;;-3.33;87.31
61109;BME280;46995;55.740;37.402;2022-12-15T21:49:51;99127.22;;;-3.63;87.00
61109;BME280;46995;55.740;37.402;2022-12-15T21:52:25;99160.50;;;-3.32;87.74
61109;BME280;46995;55.740;37.402;2022-12-15T21:54:51;99169.88;;;-3.29;86.98
61109;BME280;46995;55.740;37.402;2022-12-15T21:57:17;99151.97;;;-3.34;88.08
61109;BME280;46995;55.740;37.402;2022-12-15T21:59:43;99166.59;;;-3.34;86.97
61109;BME280;46995;55.740;37.402;2022-12-15T22:02:38;99151.78;;;-3.29;86.87
61109;BME280;46995;55.740;37.402;2022-12-15T22:05:30;99161.97;;;-3.25;87.23
61109;BME280;46995;55.740;37.402;2022-12-15T22:08:00;99157.88;;;-3.30;86.97
61109;BME280;46995;55.740;37.402;2022-12-15T22:10:35;99155.28;;;-3.30;87.23
61109;BME280;46995;55.740;37.402;2022-12-15T22:13:01;99152.59;;;-3.27;87.10
61109;BME280;46995;55.740;37.402;2022-12-15T22:15:28;99169.44;;;-3.17;86.98
61109;BME280;46995;55.740;37.402;2022-12-15T22:17:53;99151.75;;;-3.28;86.73
61109;BME280;46995;55.740;37.402;2022-12-15T22:20:22;99162.47;;;-3.15;86.96
61109;BME280;46995;55.740;37.402;2022-12-15T22:22:49;99141.31;;;-3.25;87.68
61109;BME280;46995;55.740;37.402;2022-12-15T22:25:24;99158.88;;;-3.11;87.17
61109;BME280;46995;55.740;37.402;2022-12-15T22:27:51;99151.81;;;-3.06;86.82
61109;BME280;46995;55.740;37.402;2022-12-15T22:30:19;99156.91;;;-3.05;86.96
61109;BME280;46995;55.740;37.402;2022-12-15T22:32:46;99135.88;;;-3.17;87.23
61109;BME280;46995;55.740;37.402;2022-12-15T22:35:24;99149.41;;;-3.11;86.86
61109;BME280;46995;55.740;37.402;2022-12-15T22:37:50;99158.75;;;-3.08;87.13
61109;BME280;46995;55.740;37.402;2022-12-15T22:40:21;99158.53;;;-3.02;86.88
61109;BME280;46995;55.740;37.402;2022-12-15T22:42:55;99164.75;;;-3.08;86.43
61109;BME280;46995;55.740;37.402;2022-12-15T22:45:22;99143.50;;;-3.14;86.93
61109;BME280;46995;55.740;37.402;2022-12-15T22:47:51;99133.41;;;-3.20;87.00
61109;BME280;46995;55.740;37.402;2022-12-15T22:50:25;99158.63;;;-3.04;87.06
61109;BME280;46995;55.740;37.402;2022-12-15T22:52:51;99161.25;;;-3.05;87.21
61109;BME280;46995;55.740;37.402;2022-12-15T22:55:18;99143.25;;;-3.08;87.74
61109;BME280;46995;55.740;37.402;2022-12-15T22:58:06;99149.00;;;-3.00;87.46
61109;BME280;46995;55.740;37.402;2022-12-15T23:00:33;99151.75;;;-3.05;87.76
61109;BME280;46995;55.740;37.402;2022-12-15T23:02:59;99157.47;;;-2.96;88.37
61109;BME280;46995;55.740;37.402;2022-12-15T23:05:25;99138.09;;;-3.08;88.30
61109;BME280;46995;55.740;37.402;2022-12-15T23:07:51;99161.78;;;-2.97;88.09
61109;BME280;46995;55.740;37.402;2022-12-15T23:10:18;99160.94;;;-2.97;88.69
61109;BME280;46995;55.740;37.402;2022-12-15T23:13:07;99156.63;;;-2.97;89.04
61109;BME280;46995;55.740;37.402;2022-12-15T23:15:33;99154.84;;;-2.95;88.57
61109;BME280;46995;55.740;37.402;2022-12-15T23:18:17;99139.56;;;-3.01;88.58
61109;BME280;46995;55.740;37.402;2022-12-15T23:20:43;99149.53;;;-2.92;89.17
61109;BME280;46995;55.740;37.402;2022-12-15T23:23:08;99122.50;;;-3.05;88.49
61109;BME280;46995;55.740;37.402;2022-12-15T23:25:34;99112.16;;;-3.05;88.18
61109;BME280;46995;55.740;37.402;2022-12-15T23:28:00;99127.66;;;-3.05;87.94
61109;BME280;46995;55.740;37.402;2022-12-15T23:30:26;99145.25;;;-2.93;88.36
61109;BME280;46995;55.740;37.402;2022-12-15T23:32:51;99122.59;;;-3.08;88.18
61109;BME280;46995;55.740;37.402;2022-12-15T23:35:17;99129.22;;;-3.01;88.05
61109;BME280;46995;55.740;37.402;2022-12-15T23:37:43;99136.09;;;-3.00;87.85
61109;BME280;46995;55.740;37.402;2022-12-15T23:40:09;99120.69;;;-3.03;88.07
61109;BME280;46995;55.740;37.402;2022-12-15T23:42:35;99138.44;;;-2.94;88.13
61109;BME280;46995;55.740;37.402;2022-12-15T23:45:01;99131.28;;;-2.87;88.04
61109;BME280;46995;55.740;37.402;2022-12-15T23:47:28;99131.88;;;-2.81;87.55
61109;BME280;46995;55.740;37.402;2022-12-15T23:49:53;99119.16;;;-2.85;87.52
61109;BME280;46995;55.740;37.402;2022-12-15T23:52:19;99128.47;;;-2.81;88.04
61109;BME280;46995;55.740;37.402;2022-12-15T23:54:45;99123.25;;;-2.80;87.78
61109;BME280;46995;55.740;37.402;2022-12-15T23:57:11;99132.59;;;-2.77;88.05
61109;BME280;46995;55.740;37.402;2022-12-15T23:59:36;99114.13;;;-2.88;87.54
